Time;durP1;ratioP1;P1;durP2;ratioP2;P2;SDS_P1;SDS_P2;PMS_P1;PMS_P2;Temp;Humidity;BMP_temperature;BMP_pressure;BME280_temperature;BME280_humidity;BME280_pressure;Samples;Min_cycle;Max_cycle;Signal;HPM_P1;HPM_P2
2023/08/20 00:01:56;;;;;;;7.78;3.70;;;;;;;19.09;100.00;101942.53;4976963;28;20070;-80
2023/08/20 00:04:25;;;;;;;6.30;3.63;;;;;;;19.11;100.00;101942.13;4986244;28;20030;-80
2023/08/20 00:06:51;;;;;;;5.85;3.78;;;;;;;19.12;100.00;101943.78;4980407;28;20338;-80
2023/08/20 00:09:16;;;;;;;5.72;3.20;;;;;;;19.00;100.00;101941.38;4977152;28;20109;-80
2023/08/20 00:11:42;;;;;;;7.40;3.97;;;;;;;19.00;100.00;101944.22;4985101;28;20031;-80
2023/08/20 00:14:07;;;;;;;6.85;3.88;;;;;;;19.03;100.00;101947.03;4969550;28;20046;-79
2023/08/20 00:16:33;;;;;;;10.90;3.97;;;;;;;18.96;100.00;101949.09;4965722;28;20483;-80
2023/08/20 00:18:59;;;;;;;7.45;3.85;;;;;;;18.88;100.00;101956.81;4972694;28;20122;-80
2023/08/20 00:21:26;;;;;;;11.65;3.72;;;;;;;18.97;100.00;101959.22;4977073;28;20034;-79
2023/08/20 00:23:52;;;;;;;7.05;3.75;;;;;;;18.95;100.00;101958.81;4970821;28;20018;-80
2023/08/20 00:26:18;;;;;;;8.50;3.90;;;;;;;18.91;100.00;101955.16;4972094;28;20041;-79
2023/08/20 00:28:43;;;;;;;6.72;3.63;;;;;;;18.78;100.00;101949.94;4972507;28;20025;-79
2023/08/20 00:31:08;;;;;;;5.03;3.65;;;;;;;18.79;100.00;101953.59;4969050;28;20392;-79
2023/08/20 00:33:34;;;;;;;7.90;4.00;;;;;;;18.82;100.00;101964.91;4967315;28;20490;-79
2023/08/20 00:36:00;;;;;;;8.55;3.58;;;;;;;18.79;100.00;101962.91;4973181;28;20090;-79
2023/08/20 00:38:25;;;;;;;7.80;3.47;;;;;;;18.84;100.00;101961.69;4971157;28;20030;-79
2023/08/20 00:40:51;;;;;;;7.00;3.30;;;;;;;18.86;100.00;101965.72;4975398;28;20190;-80
2023/08/20 00:43:16;;;;;;;8.85;3.83;;;;;;;18.61;100.00;101964.94;4972791;28;20038;-80
2023/08/20 00:45:44;;;;;;;5.60;3.58;;;;;;;18.67;100.00;101963.31;4974187;28;20612;-80
2023/08/20 00:48:11;;;;;;;9.15;3.75;;;;;;;18.73;100.00;101967.34;4971731;28;20880;-80
2023/08/20 00:50:37;;;;;;;7.45;3.92;;;;;;;18.77;100.00;101970.97;4977307;28;20030;-80
2023/08/20 00:53:03;;;;;;;6.70;3.80;;;;;;;18.73;100.00;101966.53;4976683;28;20030;-79
2023/08/20 00:55:28;;;;;;;5.25;2.88;;;;;;;18.73;100.00;101973.03;4975496;28;20403;-80
2023/08/20 00:57:54;;;;;;;6.13;4.15;;;;;;;18.80;100.00;101973.03;4979707;28;20471;-80
2023/08/20 01:00:23;;;;;;;6.53;4.00;;;;;;;18.64;100.00;101975.47;4972538;28;20504;-79
2023/08/20 01:02:48;;;;;;;7.03;3.38;;;;;;;18.76;100.00;101972.19;4973409;28;20502;-79
2023/08/20 01:05:15;;;;;;;6.20;3.60;;;;;;;18.72;100.00;101971.41;4971337;28;20039;-78
2023/08/20 01:07:49;;;;;;;7.50;4.05;;;;;;;18.61;100.00;101976.28;4974254;28;20525;-80
2023/08/20 01:10:22;;;;;;;6.00;3.70;;;;;;;18.60;100.00;101983.19;4967797;28;20049;-80
2023/08/20 01:12:49;;;;;;;5.22;3.50;;;;;;;18.69;100.00;101989.22;4989475;28;20792;-80
2023/08/20 01:15:15;;;;;;;8.18;3.92;;;;;;;18.60;100.00;102003.03;4973556;28;20082;-80
2023/08/20 01:17:41;;;;;;;7.15;3.90;;;;;;;18.56;100.00;101991.69;4976455;28;20153;-80
2023/08/20 01:20:08;;;;;;;4.80;3.58;;;;;;;18.60;100.00;101986.00;4980826;28;20125;-80
2023/08/20 01:22:44;;;;;;;6.80;4.18;;;;;;;18.63;100.00;101982.34;4977044;28;20172;-79
2023/08/20 01:25:47;;;;;;;8.15;3.40;;;;;;;18.60;100.00;101997.34;4978920;28;20038;-80
2023/08/20 01:28:13;;;;;;;;;;;;;;;18.51;100.00;101994.09;4994675;28;20030;-80
2023/08/20 01:30:39;;;;;;;6.65;4.00;;;;;;;18.33;100.00;102000.59;4980118;28;19921;-80
2023/08/20 01:33:07;;;;;;;6.63;3.95;;;;;;;18.38;100.00;101999.38;4981671;28;20609;-80
2023/08/20 01:35:32;;;;;;;7.50;3.15;;;;;;;18.37;100.00;101994.94;4978172;28;20026;-80
2023/08/20 01:37:57;;;;;;;11.10;4.55;;;;;;;18.34;100.00;101995.72;4978028;28;20093;-80
2023/08/20 01:40:23;;;;;;;7.40;3.75;;;;;;;18.44;100.00;102001.38;4979874;28;20053;-80
2023/08/20 01:42:48;;;;;;;6.20;3.65;;;;;;;18.41;100.00;102018.41;4980795;28;20121;-80
2023/08/20 01:45:14;;;;;;;6.57;3.60;;;;;;;18.43;100.00;102011.13;4975834;28;20149;-80
2023/08/20 01:47:39;;;;;;;5.10;3.40;;;;;;;18.33;100.00;102000.59;4978569;28;20018;-80
2023/08/20 01:50:05;;;;;;;7.47;3.65;;;;;;;18.39;100.00;102010.31;4977286;28;20318;-80
2023/08/20 01:52:30;;;;;;;6.22;3.47;;;;;;;18.40;100.00;102028.13;4978481;28;20066;-79
2023/08/20 01:54:56;;;;;;;9.02;3.25;;;;;;;18.40;100.00;102009.09;4981374;28;20053;-80
2023/08/20 01:57:21;;;;;;;9.23;3.58;;;;;;;18.35;100.00;102020.84;4980281;28;20596;-80
2023/08/20 01:59:49;;;;;;;7.30;3.92;;;;;;;18.34;100.00;102030.56;4974854;28;20049;-80
2023/08/20 02:02:15;;;;;;;10.48;4.10;;;;;;;18.31;100.00;102024.88;4980519;28;20125;-80
2023/08/20 02:04:40;;;;;;;6.65;3.30;;;;;;;18.37;100.00;102032.59;4995541;28;20034;-80
2023/08/20 02:07:06;;;;;;;4.40;3.28;;;;;;;18.27;100.00;102036.22;4980217;28;20058;-79
2023/08/20 02:09:31;;;;;;;7.68;3.40;;;;;;;18.27;100.00;102031.34;4979915;28;20546;-80
2023/08/20 02:11:57;;;;;;;3.83;2.92;;;;;;;18.21;100.00;102032.16;4982169;28;20120;-80
2023/08/20 02:14:22;;;;;;;7.82;3.72;;;;;;;18.22;100.00;102028.13;4981816;28;20078;-80
2023/08/20 02:16:47;;;;;;;5.72;3.45;;;;;;;18.26;100.00;102023.28;4982649;28;20529;-80
2023/08/20 02:19:14;;;;;;;5.43;3.25;;;;;;;18.18;100.00;102027.31;4974998;28;20498;-80
2023/08/20 02:21:39;;;;;;;5.15;3.47;;;;;;;18.21;100.00;102032.16;4990240;28;20029;-80
2023/08/20 02:24:05;;;;;;;7.47;3.10;;;;;;;18.22;100.00;102033.78;4974373;28;20470;-80
2023/08/20 02:26:30;;;;;;;8.30;3.30;;;;;;;18.16;100.00;102035.41;4982031;28;20112;-80
2023/08/20 02:28:56;;;;;;;6.82;3.20;;;;;;;18.14;100.00;102043.50;4978233;28;20042;-80
2023/08/20 02:31:21;;;;;;;5.90;2.92;;;;;;;18.12;100.00;102045.91;4978137;28;20053;-80
2023/08/20 02:33:47;;;;;;;7.38;3.40;;;;;;;18.06;100.00;102049.13;4986423;28;20085;-79
2023/08/20 02:36:12;;;;;;;4.72;3.20;;;;;;;18.08;100.00;102043.88;4977585;28;20045;-79
2023/08/20 02:38:37;;;;;;;7.70;3.20;;;;;;;18.02;100.00;102039.81;4980827;28;20045;-80
2023/08/20 02:41:03;;;;;;;4.43;2.92;;;;;;;18.03;100.00;102030.13;4975794;28;20397;-80
2023/08/20 02:43:29;;;;;;;6.82;3.35;;;;;;;18.13;100.00;102019.19;4987380;28;20120;-79
2023/08/20 02:45:54;;;;;;;7.57;3.60;;;;;;;18.05;100.00;102009.88;4994121;28;20022;-79
2023/08/20 02:48:19;;;;;;;6.80;3.20;;;;;;;18.04;100.00;102011.88;4972106;28;20092;-79
2023/08/20 02:50:45;;;;;;;4.78;2.90;;;;;;;18.08;100.00;102007.03;4976213;28;20034;-79
2023/08/20 02:53:10;;;;;;;4.78;3.65;;;;;;;18.01;100.00;102007.03;4979348;28;20070;-79
2023/08/20 02:55:36;;;;;;;5.57;3.35;;;;;;;18.02;100.00;102014.31;4981234;28;20062;-82
2023/08/20 02:58:03;;;;;;;7.57;3.53;;;;;;;17.98;100.00;102013.53;4979288;28;20343;-82
2023/08/20 03:00:29;;;;;;;5.70;3.13;;;;;;;17.97;100.00;102011.88;4974078;28;20062;-82
2023/08/20 03:02:54;;;;;;;6.38;3.10;;;;;;;17.90;100.00;102000.56;4975696;28;20181;-82
2023/08/20 03:05:20;;;;;;;4.60;3.72;;;;;;;17.82;100.00;102002.56;4978595;28;20435;-82
2023/08/20 03:07:45;;;;;;;7.00;3.15;;;;;;;17.86;100.00;101997.72;4984771;28;20035;-82
2023/08/20 03:10:11;;;;;;;6.40;3.28;;;;;;;17.81;100.00;101991.59;4981700;28;20030;-82
2023/08/20 03:12:37;;;;;;;4.53;3.78;;;;;;;17.79;100.00;101994.00;4980458;28;20505;-82
2023/08/20 03:15:06;;;;;;;5.82;3.35;;;;;;;17.83;100.00;101990.00;4973210;28;20085;-81
2023/08/20 03:17:32;;;;;;;5.47;3.17;;;;;;;17.87;100.00;101990.00;4976188;28;20046;-82
2023/08/20 03:19:59;;;;;;;5.57;3.00;;;;;;;17.81;100.00;101986.72;4978815;28;20403;-82
2023/08/20 03:22:26;;;;;;;5.82;2.97;;;;;;;17.78;100.00;102000.91;4992160;28;20026;-82
2023/08/20 03:24:52;;;;;;;3.85;3.55;;;;;;;17.79;100.00;101988.34;4977349;28;20036;-82
2023/08/20 03:27:18;;;;;;;5.38;2.88;;;;;;;17.76;100.00;101994.81;4976685;28;20053;-82
2023/08/20 03:29:44;;;;;;;6.85;3.25;;;;;;;17.80;100.00;102001.31;4977617;28;20022;-82
2023/08/20 03:32:10;;;;;;;5.35;2.80;;;;;;;17.68;100.00;101994.78;4963195;28;20034;-82
2023/08/20 03:34:35;;;;;;;4.82;3.22;;;;;;;17.64;100.00;101993.97;4977565;28;20164;-82
2023/08/20 03:37:01;;;;;;;6.45;3.20;;;;;;;17.72;100.00;101999.66;4982754;28;20117;-81
2023/08/20 03:39:26;;;;;;;3.60;2.55;;;;;;;17.67;100.00;101998.84;4979720;28;20088;-82
2023/08/20 03:41:52;;;;;;;4.72;3.00;;;;;;;17.58;100.00;101994.75;4989537;28;20022;-81
2023/08/20 03:44:18;;;;;;;5.68;3.08;;;;;;;17.59;100.00;102004.88;4982470;28;20498;-82
2023/08/20 03:46:44;;;;;;;4.90;2.85;;;;;;;17.63;100.00;102006.50;4979259;28;20201;-82
2023/08/20 03:49:10;;;;;;;4.93;2.83;;;;;;;17.56;100.00;102002.84;4974932;28;20679;-82
2023/08/20 03:51:35;;;;;;;4.20;3.10;;;;;;;17.61;100.00;102011.78;4985336;28;20080;-82
2023/08/20 03:54:00;;;;;;;5.25;3.15;;;;;;;17.55;100.00;102007.69;4980201;28;20045;-81
2023/08/20 03:56:26;;;;;;;5.25;3.03;;;;;;;17.49;100.00;102012.13;4977226;28;20831;-81
2023/08/20 03:58:52;;;;;;;5.15;2.92;;;;;;;17.51;100.00;102006.88;4972863;28;20041;-82
2023/08/20 04:01:18;;;;;;;7.28;4.15;;;;;;;17.55;100.00;102018.22;4975085;28;20038;-84
2023/08/20 04:03:45;;;;;;;6.63;3.17;;;;;;;17.55;100.00;102019.03;4974756;28;20392;-81
2023/08/20 04:06:11;;;;;;;8.20;2.97;;;;;;;17.49;100.00;102020.63;4981461;28;20470;-81
2023/08/20 04:08:36;;;;;;;6.85;3.15;;;;;;;17.51;100.00;102018.19;4981162;28;20089;-81
2023/08/20 04:11:03;;;;;;;5.28;3.63;;;;;;;17.47;100.00;102028.69;4995613;28;20149;-81
2023/08/20 04:13:29;;;;;;;5.32;3.25;;;;;;;17.40;100.00;102029.47;4977422;28;20045;-81
2023/08/20 04:15:54;;;;;;;4.93;3.92;;;;;;;17.47;100.00;102032.31;4959981;28;20046;-81
2023/08/20 04:18:19;;;;;;;4.97;3.30;;;;;;;17.44;100.00;102030.31;4974694;28;20144;-81
2023/08/20 04:20:45;;;;;;;4.03;2.60;;;;;;;17.47;100.00;102037.19;4997326;28;20030;-81
2023/08/20 04:23:10;;;;;;;5.00;3.47;;;;;;;17.48;100.00;102024.66;4983063;28;20022;-82
2023/08/20 04:25:36;;;;;;;7.03;3.17;;;;;;;17.54;100.00;102017.41;4980864;28;20424;-82
2023/08/20 04:28:01;;;;;;;5.80;3.13;;;;;;;17.48;100.00;102024.66;4978869;28;20213;-81
2023/08/20 04:30:27;;;;;;;5.95;3.25;;;;;;;17.47;100.00;102012.50;4994779;28;20058;-81
2023/08/20 04:32:52;;;;;;;9.27;3.53;;;;;;;17.48;100.00;102013.34;4979555;28;20441;-81
2023/08/20 04:35:17;;;;;;;6.10;2.72;;;;;;;17.54;100.00;102025.91;4984701;28;20042;-83
2023/08/20 04:37:43;;;;;;;5.32;3.30;;;;;;;17.54;100.00;102028.75;4976767;28;20030;-82
2023/08/20 04:40:09;;;;;;;3.75;3.00;;;;;;;17.48;100.00;102024.66;4990156;28;20041;-83
2023/08/20 04:42:34;;;;;;;7.88;3.20;;;;;;;17.40;100.00;102040.00;4980175;28;20057;-83
2023/08/20 04:44:59;;;;;;;4.88;3.15;;;;;;;17.46;100.00;102032.75;4975649;28;20330;-82
2023/08/20 04:47:25;;;;;;;4.07;3.20;;;;;;;17.45;100.00;102054.56;4980253;28;20041;-82
2023/08/20 04:49:50;;;;;;;7.57;3.08;;;;;;;17.34;100.00;102056.53;4978334;28;20018;-82
2023/08/20 04:52:16;;;;;;;5.40;3.55;;;;;;;17.35;100.00;102060.16;4975181;28;20495;-83
2023/08/20 04:54:41;;;;;;;4.22;2.63;;;;;;;17.45;100.00;102053.75;4975481;28;20344;-83
2023/08/20 04:57:07;;;;;;;4.78;3.03;;;;;;;17.50;100.00;102055.38;4974319;28;20030;-82
2023/08/20 04:59:33;;;;;;;5.63;3.00;;;;;;;17.45;100.00;102050.91;4974529;28;20434;-82
2023/08/20 05:01:58;;;;;;;6.97;3.08;;;;;;;17.43;100.00;102061.81;4983899;28;20433;-83
2023/08/20 05:04:23;;;;;;;4.40;2.25;;;;;;;17.47;100.00;102051.34;4980457;28;20482;-83
2023/08/20 05:06:49;;;;;;;4.43;2.67;;;;;;;17.39;100.00;102055.34;4978364;28;20113;-82
2023/08/20 05:09:15;;;;;;;5.40;2.50;;;;;;;17.44;100.00;102057.81;4974947;28;20030;-83
2023/08/20 05:11:41;;;;;;;7.10;2.60;;;;;;;17.40;100.00;102062.63;4978046;28;20031;-82
2023/08/20 05:14:06;;;;;;;4.00;2.50;;;;;;;17.45;100.00;102053.75;4975161;28;20038;-83
2023/08/20 05:16:32;;;;;;;9.32;2.78;;;;;;;17.51;100.00;102063.50;4977830;28;20465;-82
2023/08/20 05:18:57;;;;;;;6.18;2.47;;;;;;;17.47;100.00;102059.81;4974577;28;20046;-82
2023/08/20 05:21:23;;;;;;;4.30;2.45;;;;;;;17.43;100.00;102061.81;4981117;28;20030;-83
2023/08/20 05:23:48;;;;;;;3.45;2.10;;;;;;;17.44;100.00;102069.13;4971117;28;20023;-83
2023/08/20 05:26:13;;;;;;;3.08;2.35;;;;;;;17.45;100.00;102076.41;4972894;28;20109;-82
2023/08/20 05:28:39;;;;;;;4.55;2.50;;;;;;;17.45;100.00;102071.53;4976595;28;20030;-83
2023/08/20 05:31:04;;;;;;;5.75;3.35;;;;;;;17.49;100.00;102074.41;4977077;28;20038;-82
2023/08/20 05:33:29;;;;;;;7.00;2.55;;;;;;;17.39;100.00;102075.97;4976201;28;20030;-82
2023/08/20 05:35:55;;;;;;;6.03;2.38;;;;;;;17.52;100.00;102076.44;4979355;28;20062;-82
2023/08/20 05:38:20;;;;;;;5.97;2.80;;;;;;;17.42;100.00;102075.19;4977897;28;20030;-82
2023/08/20 05:40:46;;;;;;;4.47;2.55;;;;;;;17.49;100.00;102074.41;4975986;28;20034;-82
2023/08/20 05:43:11;;;;;;;5.53;3.38;;;;;;;17.56;100.00;102077.28;4981573;28;20034;-82
2023/08/20 05:45:36;;;;;;;5.45;2.72;;;;;;;17.59;100.00;102082.13;4976267;28;20038;-82
2023/08/20 05:48:02;;;;;;;6.80;4.03;;;;;;;17.53;100.00;102072.41;4975482;28;20188;-82
2023/08/20 05:50:27;;;;;;;3.83;2.50;;;;;;;17.61;100.00;102079.72;4978289;28;20049;-82
2023/08/20 05:52:53;;;;;;;4.90;2.33;;;;;;;17.59;100.00;102079.31;4975387;28;20030;-82
2023/08/20 05:55:18;;;;;;;6.70;2.58;;;;;;;17.67;100.00;102083.78;4975632;28;20042;-82
2023/08/20 05:57:44;;;;;;;7.72;3.05;;;;;;;17.65;100.00;102077.72;4973043;28;20038;-82
2023/08/20 06:00:10;;;;;;;5.97;3.45;;;;;;;17.68;100.00;102073.25;4974683;28;20362;-82
2023/08/20 06:02:36;;;;;;;5.75;2.40;;;;;;;17.71;100.00;102080.97;4978287;28;20045;-82
2023/08/20 06:05:04;;;;;;;6.22;2.97;;;;;;;17.71;100.00;102072.50;4988465;28;20026;-82
2023/08/20 06:07:30;;;;;;;8.73;2.92;;;;;;;17.78;100.00;102077.34;4981236;28;20026;-82
2023/08/20 06:09:56;;;;;;;5.68;2.38;;;;;;;17.81;100.00;102083.00;4977889;28;20434;-82
2023/08/20 06:12:22;;;;;;;8.85;3.55;;;;;;;17.85;100.00;102085.91;4979920;28;20018;-83
2023/08/20 06:14:47;;;;;;;6.18;2.53;;;;;;;17.80;100.00;102087.06;4979859;28;20097;-82
2023/08/20 06:17:13;;;;;;;4.82;2.42;;;;;;;17.81;100.00;102083.00;4979668;28;20069;-82
2023/08/20 06:19:38;;;;;;;6.43;2.47;;;;;;;17.77;100.00;102076.56;4982512;28;20053;-82
2023/08/20 06:22:04;;;;;;;8.10;4.13;;;;;;;17.76;100.00;102079.78;4993634;28;20482;-83
2023/08/20 06:24:29;;;;;;;8.35;3.30;;;;;;;17.73;100.00;102077.72;4979649;28;20034;-82
2023/08/20 06:26:54;;;;;;;7.60;3.33;;;;;;;17.65;100.00;102074.88;4980719;28;20022;-83
2023/08/20 06:29:21;;;;;;;12.40;3.40;;;;;;;17.64;100.00;102070.41;4977604;28;20046;-83
2023/08/20 06:31:48;;;;;;;8.00;3.40;;;;;;;17.68;100.00;102085.41;4975060;28;20067;-82
2023/08/20 06:34:13;;;;;;;12.95;4.90;;;;;;;17.72;100.00;102082.59;4978017;28;20041;-83
2023/08/20 06:36:38;;;;;;;7.00;4.18;;;;;;;17.74;100.00;102079.38;4965273;28;20054;-83
2023/08/20 06:39:04;;;;;;;4.60;2.53;;;;;;;17.79;100.00;102090.28;4977368;28;20022;-83
2023/08/20 06:41:30;;;;;;;7.53;3.47;;;;;;;17.82;100.00;102083.84;4972196;28;20065;-83
2023/08/20 06:43:55;;;;;;;7.82;3.33;;;;;;;17.86;100.00;102085.50;4975984;28;20501;-83
2023/08/20 06:46:20;;;;;;;18.67;5.35;;;;;;;17.90;100.00;102087.53;4976310;28;20088;-83
2023/08/20 06:48:46;;;;;;;11.70;4.60;;;;;;;17.95;100.00;102079.47;4979611;28;20121;-82
2023/08/20 06:51:18;;;;;;;12.30;3.67;;;;;;;18.01;100.00;102089.19;4978016;28;20088;-83
2023/08/20 06:53:43;;;;;;;7.60;2.97;;;;;;;18.05;100.00;102081.53;4993102;28;20566;-83
2023/08/20 06:56:09;;;;;;;16.75;3.80;;;;;;;18.14;100.00;102086.00;4974043;28;20038;-83
2023/08/20 06:58:35;;;;;;;9.10;3.05;;;;;;;18.14;100.00;102077.50;4977672;28;20125;-83
2023/08/20 07:01:07;;;;;;;14.05;3.65;;;;;;;18.15;100.00;102085.59;4980174;28;20503;-82
2023/08/20 07:03:43;;;;;;;12.40;3.45;;;;;;;18.25;100.00;102086.81;4979341;28;20540;-82
2023/08/20 07:06:09;;;;;;;9.27;4.95;;;;;;;18.28;100.00;102094.53;4976814;28;20037;-83
2023/08/20 07:08:36;;;;;;;7.20;3.15;;;;;;;18.33;100.00;102091.28;4977674;28;20045;-83
2023/08/20 07:11:02;;;;;;;5.22;2.97;;;;;;;18.28;100.00;102094.53;4975395;28;20030;-82
2023/08/20 07:13:28;;;;;;;10.13;3.42;;;;;;;18.35;100.00;102094.53;4973018;28;20038;-83
2023/08/20 07:15:54;;;;;;;8.25;3.45;;;;;;;18.45;100.00;102090.91;4976021;28;20743;-83
2023/08/20 07:18:19;;;;;;;8.95;2.83;;;;;;;18.48;100.00;102095.75;4972446;28;20050;-87
2023/08/20 07:20:45;;;;;;;7.10;2.47;;;;;;;18.85;100.00;102097.44;4977028;28;20045;-86
2023/08/20 07:23:11;;;;;;;9.13;2.88;;;;;;;19.16;100.00;102103.47;4978245;28;20057;-86
2023/08/20 07:25:38;;;;;;;4.38;2.30;;;;;;;18.97;100.00;102092.56;4968414;28;20175;-85
2023/08/20 07:28:13;;;;;;;8.35;2.83;;;;;;;18.78;100.00;102097.41;4976173;28;20121;-85
2023/08/20 07:30:38;;;;;;;7.78;2.90;;;;;;;18.81;100.00;102104.34;4975516;28;20286;-85
2023/08/20 07:33:05;;;;;;;9.38;2.80;;;;;;;18.69;100.00;102102.66;4974476;28;20769;-85
2023/08/20 07:35:31;;;;;;;8.70;2.47;;;;;;;18.62;100.00;102092.13;4978871;28;20030;-85
2023/08/20 07:37:56;;;;;;;10.68;2.97;;;;;;;18.85;100.00;102103.09;4975885;28;20048;-85
2023/08/20 07:40:21;;;;;;;10.98;3.28;;;;;;;19.43;100.00;102105.84;4992195;28;20480;-85
2023/08/20 07:42:47;;;;;;;9.50;2.53;;;;;;;19.64;100.00;102105.78;4980158;28;20042;-85
2023/08/20 07:45:13;;;;;;;6.97;2.53;;;;;;;19.42;100.00;102116.41;4970595;28;20071;-85
2023/08/20 07:47:38;;;;;;;9.88;2.38;;;;;;;19.47;100.00;102106.66;4972178;28;20065;-85
2023/08/20 07:50:05;;;;;;;9.68;2.42;;;;;;;19.62;100.00;102110.25;4977580;28;20029;-85
2023/08/20 07:52:33;;;;;;;7.35;2.63;;;;;;;19.54;100.00;102100.94;4973323;28;20491;-85
2023/08/20 07:54:59;;;;;;;7.95;3.63;;;;;;;19.29;100.00;102113.19;4972935;28;20121;-85
2023/08/20 07:57:24;;;;;;;10.68;2.55;;;;;;;19.33;100.00;102113.16;4976581;28;20050;-84
2023/08/20 07:59:50;;;;;;;5.43;2.47;;;;;;;19.34;100.00;102108.31;4977035;28;20027;-84
2023/08/20 08:02:16;;;;;;;4.68;2.08;;;;;;;19.46;100.00;102116.41;4975886;28;20053;-84
2023/08/20 08:04:42;;;;;;;7.05;2.33;;;;;;;19.68;100.00;102117.13;4975653;28;20022;-85
2023/08/20 08:07:08;;;;;;;11.00;3.08;;;;;;;19.70;100.00;102118.38;4979904;28;20058;-85
2023/08/20 08:09:33;;;;;;;9.48;3.25;;;;;;;20.06;100.00;102118.22;4973089;28;20112;-84
2023/08/20 08:11:59;;;;;;;10.88;2.20;;;;;;;19.84;100.00;102120.34;4979320;28;20039;-85
2023/08/20 08:14:25;;;;;;;8.57;2.42;;;;;;;19.82;100.00;102131.31;4974478;28;20041;-84
2023/08/20 08:16:51;;;;;;;6.40;2.58;;;;;;;20.17;100.00;102128.72;4978537;28;20525;-85
2023/08/20 08:19:17;;;;;;;8.95;2.50;;;;;;;20.12;100.00;102135.66;4984314;28;20050;-85
2023/08/20 08:21:43;;;;;;;6.70;2.90;;;;;;;19.88;100.00;102126.84;4981828;28;20121;-85
2023/08/20 08:24:09;;;;;;;7.63;2.30;;;;;;;20.04;100.00;102128.38;4975065;28;20502;-84
2023/08/20 08:26:35;;;;;;;6.00;2.28;;;;;;;20.09;100.00;102134.44;4975768;28;20113;-85
2023/08/20 08:29:02;;;;;;;8.40;3.38;;;;;;;20.27;100.00;102136.38;4975206;28;20022;-85
2023/08/20 08:31:28;;;;;;;9.25;2.33;;;;;;;20.11;100.00;102131.16;4971015;28;20092;-88
2023/08/20 08:33:53;;;;;;;10.00;2.38;;;;;;;19.89;100.00;102141.84;4972484;28;20755;-87
2023/08/20 08:36:18;;;;;;;6.80;1.98;;;;;;;19.81;100.00;102132.53;4974976;28;20294;-88
2023/08/20 08:38:44;;;;;;;8.77;2.58;;;;;;;19.90;100.00;102135.75;4975271;28;20026;-86
2023/08/20 08:41:12;;;;;;;8.43;2.30;;;;;;;20.19;100.00;102151.84;4986904;28;20050;-88
2023/08/20 08:43:38;;;;;;;7.30;2.20;;;;;;;20.27;100.00;102150.59;4979024;28;20026;-88
2023/08/20 08:46:07;;;;;;;5.78;2.10;;;;;;;20.44;100.00;102143.97;4982211;28;20048;-88
2023/08/20 08:48:34;;;;;;;7.03;2.45;;;;;;;20.44;100.00;102154.56;4981347;28;20061;-88
2023/08/20 08:51:01;;;;;;;8.60;2.40;;;;;;;20.51;100.00;102145.97;4980397;28;20161;-88
2023/08/20 08:53:26;;;;;;;6.70;2.40;;;;;;;20.35;100.00;102157.88;4981541;28;20038;-88
2023/08/20 08:55:52;;;;;;;7.53;2.78;;;;;;;20.40;100.00;102154.56;4981543;28;20030;-88
2023/08/20 08:58:17;;;;;;;5.22;2.15;;;;;;;20.33;100.00;102162.34;4973276;28;20094;-88
2023/08/20 09:00:43;;;;;;;7.22;1.75;;;;;;;20.44;100.00;102163.88;4982323;28;20975;-89
2023/08/20 09:03:08;;;;;;;4.22;2.00;;;;;;;20.90;100.00;102159.94;4982676;28;20034;-88
2023/08/20 09:05:46;;;;;;;4.15;1.85;;;;;;;20.94;100.00;102159.13;4985287;28;20380;-90
2023/08/20 09:08:19;;;;;;;6.88;2.13;;;;;;;21.25;100.00;102160.88;4980928;28;20030;-88
2023/08/20 09:10:44;;;;;;;5.00;2.25;;;;;;;21.07;100.00;102165.91;4981194;28;20061;-90
2023/08/20 09:13:10;;;;;;;9.38;2.47;;;;;;;21.00;100.00;102165.97;4984737;28;20026;-88
2023/08/20 09:15:35;;;;;;;8.48;2.20;;;;;;;20.85;100.00;102153.88;4985364;28;20038;-88
2023/08/20 09:18:03;;;;;;;9.63;2.28;;;;;;;21.39;100.00;102159.09;4980894;28;20042;-90
2023/08/20 09:20:36;;;;;;;6.47;1.77;;;;;;;21.19;100.00;102162.56;4977368;28;20034;-90
2023/08/20 09:23:02;;;;;;;6.47;1.92;;;;;;;20.96;100.00;102159.50;4980027;28;20822;-89
2023/08/20 09:25:27;;;;;;;6.82;2.13;;;;;;;20.98;100.00;102159.91;4981192;28;20033;-90
2023/08/20 09:27:53;;;;;;;6.35;1.60;;;;;;;21.11;100.00;102176.03;4990681;28;20045;-91
2023/08/20 09:30:20;;;;;;;5.13;1.70;;;;;;;21.19;100.00;102168.25;4978701;28;20031;-91
2023/08/20 09:33:02;;;;;;;7.10;2.45;;;;;;;21.50;100.00;102168.34;4984443;28;20030;-90
2023/08/20 09:35:27;;;;;;;7.50;1.75;;;;;;;21.75;100.00;102170.94;4982854;28;20034;-90
2023/08/20 09:37:58;;;;;;;8.05;2.13;;;;;;;21.52;100.00;102174.44;4991858;28;20026;-90
2023/08/20 09:40:24;;;;;;;3.17;1.42;;;;;;;21.34;99.60;102179.50;4985845;28;20562;-91
2023/08/20 09:42:51;;;;;;;5.95;1.52;;;;;;;21.69;100.00;102173.47;4986216;28;20037;-90
2023/08/20 09:45:19;;;;;;;3.35;1.05;;;;;;;21.47;100.00;102166.38;4998433;28;20029;-91
2023/08/20 09:47:54;;;;;;;6.22;1.30;;;;;;;21.75;100.00;102182.34;4981751;28;20479;-91
2023/08/20 09:50:21;;;;;;;4.22;1.20;;;;;;;21.87;100.00;102176.09;4980342;28;20045;-91
2023/08/20 09:53:03;;;;;;;4.63;1.50;;;;;;;22.03;94.17;102177.53;4978211;28;20026;-89
2023/08/20 09:55:36;;;;;;;4.10;1.10;;;;;;;22.20;94.90;102184.22;4985611;28;20034;-89
2023/08/20 09:58:02;;;;;;;2.78;1.20;;;;;;;21.92;100.00;102174.81;4972647;28;20283;-91
2023/08/20 10:00:28;;;;;;;3.67;0.98;;;;;;;21.80;100.00;102184.75;4976456;28;20026;-90
2023/08/20 10:02:54;;;;;;;4.25;1.10;;;;;;;22.32;95.08;102187.34;4980057;28;20045;-91
2023/08/20 10:05:20;;;;;;;4.20;1.27;;;;;;;22.23;95.42;102187.06;4974501;28;20030;-91
2023/08/20 10:07:47;;;;;;;3.92;1.38;;;;;;;22.10;100.00;102175.41;4979506;28;20065;-89
2023/08/20 10:10:13;;;;;;;8.70;1.75;;;;;;;22.19;95.14;102182.63;4975802;28;20105;-89
2023/08/20 10:12:40;;;;;;;5.47;2.83;;;;;;;22.25;100.00;102189.50;4972418;28;20030;-87
2023/08/20 10:15:07;;;;;;;4.85;1.65;;;;;;;22.43;98.25;102183.53;4972844;28;20196;-88
2023/08/20 10:17:34;;;;;;;3.25;1.88;;;;;;;22.57;97.29;102185.41;4991569;28;20042;-88
2023/08/20 10:20:04;;;;;;;7.50;1.70;;;;;;;22.80;96.55;102187.50;4992981;28;20506;-88
2023/08/20 10:22:37;;;;;;;2.58;1.30;;;;;;;22.64;100.00;102182.41;4974028;28;20034;-87
2023/08/20 10:25:05;;;;;;;4.20;2.20;;;;;;;22.66;98.43;102189.34;4984772;28;20034;-90
2023/08/20 10:27:32;;;;;;;3.15;1.48;;;;;;;22.86;96.31;102192.28;4973896;28;20065;-90
2023/08/20 10:29:59;;;;;;;7.68;1.60;;;;;;;22.80;94.28;102178.94;4986150;28;20483;-90
2023/08/20 10:32:46;;;;;;;6.78;2.72;;;;;;;23.29;93.75;102185.84;4970857;28;20037;-90
2023/08/20 10:35:12;;;;;;;7.72;1.60;;;;;;;23.21;96.85;102183.56;4975808;28;20430;-89
2023/08/20 10:37:37;;;;;;;8.38;2.13;;;;;;;23.10;95.93;102180.91;4977182;28;20030;-89
2023/08/20 10:40:04;;;;;;;5.78;1.50;;;;;;;23.07;100.00;102184.63;4971876;28;20038;-88
2023/08/20 10:42:30;;;;;;;7.75;2.95;;;;;;;23.01;97.83;102187.16;4972674;28;20042;-89
2023/08/20 10:45:03;;;;;;;4.25;1.95;;;;;;;23.25;100.00;102185.13;4965657;28;21630;-89
2023/08/20 10:47:41;;;;;;;5.05;1.73;;;;;;;23.39;93.48;102183.25;4972567;28;20034;-89
2023/08/20 10:50:10;;;;;;;4.30;1.60;;;;;;;23.63;93.56;102184.03;4997526;28;20034;-89
2023/08/20 10:52:48;;;;;;;7.75;1.60;;;;;;;23.48;91.09;102180.63;4989284;28;20144;-89
2023/08/20 10:55:14;;;;;;;5.78;2.00;;;;;;;23.72;89.90;102185.06;4980238;28;20022;-89
2023/08/20 10:57:41;;;;;;;9.80;2.25;;;;;;;23.67;93.31;102196.19;4984023;28;20454;-89
2023/08/20 11:00:11;;;;;;;2.47;1.30;;;;;;;23.59;85.89;102192.69;4979744;28;20451;-89
2023/08/20 11:02:38;;;;;;;1.95;1.52;;;;;;;23.90;93.42;102196.16;4984562;28;20034;-89
2023/08/20 11:05:04;;;;;;;4.35;1.30;;;;;;;24.03;88.10;102195.50;4980496;28;20050;-89
2023/08/20 11:07:31;;;;;;;4.20;1.35;;;;;;;24.13;90.12;102185.91;4983087;28;20034;-89
2023/08/20 11:09:57;;;;;;;7.70;2.17;;;;;;;23.93;92.97;102191.66;4979497;28;20026;-89
2023/08/20 11:12:23;;;;;;;8.10;1.40;;;;;;;24.11;84.96;102199.84;4982043;28;20045;-88
2023/08/20 11:14:49;;;;;;;5.57;2.20;;;;;;;24.17;88.97;102194.41;4981421;28;20035;-88